createdAt,value
2023-02-07T00:00:50.769Z,102542.75
2023-02-07T00:03:56.486Z,102545.63
2023-02-07T00:06:58.800Z,102555.44
2023-02-07T00:10:01.780Z,102562.19
2023-02-07T00:13:06.221Z,102566.25
2023-02-07T00:16:09.567Z,102557.00
2023-02-07T00:19:11.909Z,102582.69
2023-02-07T00:22:14.832Z,102581.97
2023-02-07T00:25:18.154Z,102581.31
2023-02-07T00:28:20.912Z,102581.75
2023-02-07T00:31:27.373Z,102585.47
2023-02-07T00:34:31.697Z,102582.94
2023-02-07T00:37:34.076Z,102577.47
2023-02-07T00:40:38.670Z,102577.59
2023-02-07T00:43:45.361Z,102579.00
2023-02-07T00:46:48.057Z,102581.53
2023-02-07T00:49:50.311Z,102587.19
2023-02-07T00:52:53.460Z,102582.50
2023-02-07T00:55:55.928Z,102590.34
2023-02-07T00:58:59.074Z,102575.56
2023-02-07T01:02:01.477Z,102578.53
2023-02-07T01:05:07.892Z,102575.50
2023-02-07T01:08:10.417Z,102577.09
2023-02-07T01:11:16.463Z,102576.03
2023-02-07T01:14:18.924Z,102583.22
2023-02-07T01:17:21.647Z,102584.75
2023-02-07T01:20:24.158Z,102580.94
2023-02-07T01:23:26.940Z,102569.94
2023-02-07T01:26:29.285Z,102567.16
2023-02-07T01:29:31.958Z,102558.81
2023-02-07T01:32:34.946Z,102559.09
2023-02-07T01:35:39.826Z,102556.91
2023-02-07T01:38:43.289Z,102541.03
2023-02-07T01:41:45.905Z,102552.69
2023-02-07T01:44:51.242Z,102538.44
2023-02-07T01:47:55.430Z,102540.59
2023-02-07T01:51:05.462Z,102534.44
2023-02-07T01:54:11.231Z,102533.22
2023-02-07T01:57:17.609Z,102530.44
2023-02-07T02:00:20.695Z,102529.22
2023-02-07T02:03:27.167Z,102528.37
2023-02-07T02:06:32.026Z,102527.72
2023-02-07T02:09:34.906Z,102524.09
2023-02-07T02:13:05.065Z,102512.41
2023-02-07T02:16:36.360Z,102517.31
2023-02-07T02:19:51.237Z,102514.72
2023-02-07T02:23:17.696Z,102518.84
2023-02-07T02:26:43.381Z,102527.84
2023-02-07T02:30:24.133Z,102515.66
2023-02-07T02:33:42.261Z,102521.78
2023-02-07T02:37:10.124Z,102522.63
2023-02-07T02:40:15.927Z,102508.97
2023-02-07T02:43:59.545Z,102519.84
2023-02-07T02:47:03.461Z,102523.78
2023-02-07T02:50:12.057Z,102522.72
2023-02-07T02:53:16.034Z,102523.88
2023-02-07T02:56:40.495Z,102514.50
2023-02-07T02:59:58.688Z,102517.69
2023-02-07T03:03:29.564Z,102510.66
2023-02-07T03:06:41.854Z,102512.88
2023-02-07T03:10:18.052Z,102505.69
2023-02-07T03:13:58.122Z,102510.38
2023-02-07T03:17:29.801Z,102519.44
2023-02-07T03:20:46.119Z,102523.59
2023-02-07T03:23:52.313Z,102522.47
2023-02-07T03:26:59.339Z,102524.97
2023-02-07T03:30:07.770Z,102529.62
2023-02-07T03:33:13.875Z,102531.31
2023-02-07T03:36:29.087Z,102526.97
2023-02-07T03:39:33.322Z,102523.78
2023-02-07T03:42:49.708Z,102525.59
2023-02-07T03:45:52.718Z,102518.88
2023-02-07T03:48:56.170Z,102518.84
2023-02-07T03:51:59.359Z,102512.91
2023-02-07T03:55:02.175Z,102520.31
2023-02-07T03:58:07.429Z,102512.09
2023-02-07T04:01:10.716Z,102516.34
2023-02-07T04:04:13.376Z,102522.72
2023-02-07T04:07:15.708Z,102510.44
2023-02-07T04:10:18.485Z,102508.41
2023-02-07T04:13:20.839Z,102500.16
2023-02-07T04:16:23.690Z,102503.00
2023-02-07T04:19:28.262Z,102501.94
2023-02-07T04:22:32.429Z,102502.69
2023-02-07T04:25:34.643Z,102505.66
2023-02-07T04:28:37.873Z,102515.47
2023-02-07T04:31:42.306Z,102514.19
2023-02-07T04:34:45.189Z,102498.34
2023-02-07T04:37:47.461Z,102492.03
2023-02-07T04:40:50.580Z,102485.72
2023-02-07T04:43:53.955Z,102483.56
2023-02-07T04:46:57.717Z,102491.50
2023-02-07T04:50:00.133Z,102506.66
2023-02-07T04:53:02.891Z,102519.50
2023-02-07T04:56:05.593Z,102513.41
2023-02-07T04:59:08.210Z,102517.31
2023-02-07T05:02:10.542Z,102515.88
2023-02-07T05:05:13.248Z,102520.53
2023-02-07T05:08:15.632Z,102529.13
2023-02-07T05:11:19.609Z,102530.31
2023-02-07T05:14:21.962Z,102533.16
2023-02-07T05:17:24.651Z,102547.06
2023-02-07T05:20:27.154Z,102549.50
2023-02-07T05:23:29.896Z,102558.91
2023-02-07T05:26:34.299Z,102565.37
2023-02-07T05:29:37.206Z,102567.84
2023-02-07T05:33:03.221Z,102577.31
2023-02-07T05:36:11.632Z,102566.63
2023-02-07T05:39:16.061Z,102575.72
2023-02-07T05:42:19.232Z,102568.22
2023-02-07T05:45:21.976Z,102570.69
2023-02-07T05:48:24.722Z,102567.59
2023-02-07T05:51:27.114Z,102574.97
2023-02-07T05:54:30.093Z,102570.00
2023-02-07T05:57:32.562Z,102573.94
2023-02-07T06:00:35.667Z,102570.00
2023-02-07T06:03:38.536Z,102570.16
2023-02-07T06:06:43.061Z,102570.38
2023-02-07T06:09:46.752Z,102575.91
2023-02-07T06:12:49.331Z,102574.69
2023-02-07T06:15:52.053Z,102573.19
2023-02-07T06:18:54.457Z,102574.81
2023-02-07T06:21:57.211Z,102586.81
2023-02-07T06:24:59.503Z,102577.56
2023-02-07T06:28:03.853Z,102572.69
2023-02-07T06:31:06.369Z,102576.38
2023-02-07T06:34:09.190Z,102578.66
2023-02-07T06:37:12.178Z,102570.84
2023-02-07T06:40:14.869Z,102565.75
2023-02-07T06:43:20.381Z,102575.37
2023-02-07T06:46:23.817Z,102562.56
2023-02-07T06:49:26.420Z,102554.81
2023-02-07T06:52:29.438Z,102548.31
2023-02-07T06:55:36.115Z,102555.87
2023-02-07T06:58:39.618Z,102559.13
2023-02-07T07:01:43.802Z,102551.41
2023-02-07T07:04:47.451Z,102560.06
2023-02-07T07:07:51.638Z,102555.69
2023-02-07T07:10:56.371Z,102554.50
2023-02-07T07:14:02.660Z,102553.81
2023-02-07T07:17:07.341Z,102553.44
2023-02-07T07:20:10.493Z,102556.63
2023-02-07T07:23:13.440Z,102556.97
2023-02-07T07:26:16.279Z,102554.84
2023-02-07T07:29:20.526Z,102550.66
2023-02-07T07:32:33.680Z,102555.78
2023-02-07T07:35:38.393Z,102549.38
2023-02-07T07:38:44.514Z,102555.31
2023-02-07T07:41:50.838Z,102557.22
2023-02-07T07:44:55.959Z,102548.50
2023-02-07T07:48:01.291Z,102553.13
2023-02-07T07:51:05.534Z,102555.28
2023-02-07T07:54:08.514Z,102557.81
2023-02-07T07:57:10.956Z,102551.69
2023-02-07T08:00:14.283Z,102550.41
2023-02-07T08:03:17.622Z,102550.94
2023-02-07T08:06:21.766Z,102555.75
2023-02-07T08:09:24.262Z,102549.78
2023-02-07T08:12:31.398Z,102556.94
2023-02-07T08:15:34.166Z,102550.38
2023-02-07T08:18:40.951Z,102544.56
2023-02-07T08:22:00.597Z,102543.03
2023-02-07T10:31:12.327Z,102523.00
2023-02-07T10:34:28.377Z,102523.09
2023-02-07T10:37:38.491Z,102524.81
2023-02-07T10:41:08.732Z,102512.94
2023-02-07T10:44:18.329Z,102512.91
2023-02-07T10:47:21.242Z,102515.53
2023-02-07T10:50:30.164Z,102509.34
2023-02-07T10:54:01.644Z,102509.25
2023-02-07T10:57:17.303Z,102506.69
2023-02-07T11:00:26.727Z,102502.53
2023-02-07T11:03:30.925Z,102515.44
2023-02-07T11:06:36.539Z,102505.22
2023-02-07T11:09:39.518Z,102505.91
2023-02-07T11:12:47.988Z,102502.50
2023-02-07T11:16:08.734Z,102501.72
2023-02-07T11:19:20.438Z,102496.44
2023-02-07T11:22:25.565Z,102497.34
2023-02-07T11:25:36.994Z,102497.38
2023-02-07T11:28:39.769Z,102499.19
2023-02-07T11:31:44.822Z,102494.84
2023-02-07T11:34:54.545Z,102482.78
2023-02-07T11:38:05.415Z,102482.62
2023-02-07T11:41:23.283Z,102483.56
2023-02-07T11:44:29.835Z,102486.22
2023-02-07T11:47:35.578Z,102484.41
2023-02-07T11:50:43.421Z,102481.88
2023-02-07T11:53:53.029Z,102484.53
2023-02-07T11:57:06.426Z,102473.34
2023-02-07T12:00:26.038Z,102472.56
2023-02-07T12:03:42.093Z,102468.22
2023-02-07T12:07:01.317Z,102474.16
2023-02-07T12:10:15.960Z,102457.72
2023-02-07T12:13:29.684Z,102456.03
2023-02-07T12:16:41.266Z,102457.78
2023-02-07T12:20:12.235Z,102449.12
2023-02-07T12:23:46.547Z,102443.13
2023-02-07T12:27:12.401Z,102450.03
2023-02-07T12:30:30.922Z,102450.09
2023-02-07T12:33:55.707Z,102452.53
2023-02-07T12:37:06.192Z,102445.69
2023-02-07T12:40:37.473Z,102443.13
2023-02-07T12:43:48.424Z,102450.13
2023-02-07T12:47:38.275Z,102442.34
2023-02-07T12:51:04.900Z,102435.34
2023-02-07T12:54:40.123Z,102433.75
2023-02-07T12:58:04.795Z,102429.34
2023-02-07T13:01:23.120Z,102431.00
2023-02-07T13:04:46.784Z,102431.09
2023-02-07T13:08:00.053Z,102435.44
2023-02-07T13:11:20.737Z,102423.44
2023-02-07T13:14:53.543Z,102431.16
2023-02-07T13:18:26.205Z,102426.87
2023-02-07T13:21:53.422Z,102426.06
2023-02-07T13:24:56.211Z,102421.75
2023-02-07T13:28:04.190Z,102425.19
2023-02-07T13:31:11.462Z,102424.25
2023-02-07T13:34:31.932Z,102431.22
2023-02-07T13:38:20.456Z,102428.62
2023-02-07T13:41:41.628Z,102425.97
2023-02-07T13:44:46.851Z,102428.56
2023-02-07T13:48:29.936Z,102420.88
2023-02-07T13:51:52.927Z,102416.50
2023-02-07T13:55:22.527Z,102420.75
2023-02-07T13:59:20.931Z,102413.84
2023-02-07T14:02:23.398Z,102419.97
2023-02-07T14:05:32.394Z,102420.75
2023-02-07T14:08:35.866Z,102425.88
2023-02-07T14:11:47.410Z,102413.78
2023-02-07T14:15:02.123Z,102416.47
2023-02-07T14:18:45.009Z,102412.97
2023-02-07T14:22:19.323Z,102416.44
2023-02-07T14:25:40.386Z,102408.69
2023-02-07T14:28:46.152Z,102419.00
2023-02-07T14:31:50.191Z,102433.72
2023-02-07T14:34:58.597Z,102438.03
2023-02-07T14:38:05.800Z,102429.41
2023-02-07T14:41:16.737Z,102427.75
2023-02-07T14:44:32.906Z,102431.16
2023-02-07T14:47:36.974Z,102437.00
2023-02-07T14:50:39.935Z,102436.97
2023-02-07T14:53:45.393Z,102432.75
2023-02-07T14:56:51.204Z,102438.84
2023-02-07T15:00:07.561Z,102440.56
2023-02-07T15:03:19.013Z,102431.84
2023-02-07T15:06:31.953Z,102441.34
2023-02-07T15:09:35.124Z,102440.50
2023-02-07T15:12:37.325Z,102446.44
2023-02-07T15:15:51.310Z,102448.94
2023-02-07T15:18:55.178Z,102442.81
2023-02-07T15:21:58.182Z,102449.72
2023-02-07T15:25:03.598Z,102449.78
2023-02-07T15:28:25.358Z,102449.72
2023-02-07T15:31:29.614Z,102447.91
2023-02-07T15:34:35.113Z,102452.16
2023-02-07T15:37:39.509Z,102455.44
2023-02-07T15:40:42.615Z,102456.28
2023-02-07T15:44:02.856Z,102454.47
2023-02-07T15:47:07.763Z,102462.25
2023-02-07T15:50:14.189Z,102456.09
2023-02-07T15:53:24.139Z,102467.22
2023-02-07T15:56:29.705Z,102466.38
2023-02-07T15:59:33.675Z,102470.56
2023-02-07T16:02:39.910Z,102472.94
2023-02-07T16:05:42.698Z,102481.28
2023-02-07T16:08:45.421Z,102480.31
2023-02-07T16:11:48.214Z,102477.59
2023-02-07T16:14:50.685Z,102476.75
2023-02-07T16:17:54.086Z,102477.56
2023-02-07T16:20:56.409Z,102481.78
2023-02-07T16:24:08.530Z,102481.81
2023-02-07T16:27:31.527Z,102479.97
2023-02-07T16:30:38.235Z,102481.56
2023-02-07T16:33:41.179Z,102474.50
2023-02-07T16:36:44.574Z,102479.69
2023-02-07T16:39:47.193Z,102476.16
2023-02-07T16:42:52.836Z,102482.34
2023-02-07T16:45:55.198Z,102491.63
2023-02-07T16:48:58.125Z,102494.09
2023-02-07T16:52:00.595Z,102492.38
2023-02-07T16:55:03.377Z,102493.09
2023-02-07T16:58:07.319Z,102487.03
2023-02-07T17:01:18.099Z,102491.37
2023-02-07T17:04:21.740Z,102482.84
2023-02-07T17:07:25.263Z,102486.12
2023-02-07T17:10:32.638Z,102473.28
2023-02-07T17:13:35.553Z,102465.59
2023-02-07T17:16:38.403Z,102481.88
2023-02-07T17:19:41.320Z,102485.13
2023-02-07T17:22:43.666Z,102489.53
2023-02-07T17:25:47.790Z,102491.28
2023-02-07T17:28:51.595Z,102490.56
2023-02-07T17:31:54.373Z,102487.09
2023-02-07T17:34:56.688Z,102485.16
2023-02-07T17:38:00.240Z,102483.41
2023-02-07T17:41:02.712Z,102500.59
2023-02-07T17:44:06.237Z,102503.00
2023-02-07T17:47:09.532Z,102491.75
2023-02-07T17:50:22.296Z,102492.50
2023-02-07T17:53:24.964Z,102495.78
2023-02-07T17:56:32.300Z,102504.34
2023-02-07T17:59:34.858Z,102499.25
2023-02-07T18:02:37.635Z,102500.97
2023-02-07T18:05:42.809Z,102500.75
2023-02-07T18:08:47.136Z,102500.59
2023-02-07T18:11:50.542Z,102503.97
2023-02-07T18:14:53.211Z,102516.06
2023-02-07T18:17:59.356Z,102517.53
2023-02-07T18:21:03.806Z,102520.22
2023-02-07T18:24:07.074Z,102524.25
2023-02-07T18:27:09.579Z,102525.78
2023-02-07T18:30:15.288Z,102522.34
2023-02-07T18:33:19.454Z,102516.75
2023-02-07T18:36:26.762Z,102528.75
2023-02-07T18:39:29.711Z,102524.47
2023-02-07T18:42:32.889Z,102515.75
2023-02-07T18:45:38.108Z,102521.87
2023-02-07T18:48:41.134Z,102524.28
2023-02-07T18:51:44.189Z,102530.47
2023-02-07T18:54:47.192Z,102521.97
2023-02-07T18:57:50.307Z,102520.97
2023-02-07T19:00:53.752Z,102531.41
2023-02-07T19:03:58.568Z,102523.69
2023-02-07T19:07:02.222Z,102536.59
2023-02-07T19:10:05.781Z,102536.78
2023-02-07T19:13:09.979Z,102545.13
2023-02-07T19:16:18.448Z,102547.91
2023-02-07T19:19:21.847Z,102545.44
2023-02-07T19:22:35.226Z,102539.06
2023-02-07T19:25:47.619Z,102541.31
2023-02-07T19:28:52.778Z,102534.59
2023-02-07T19:32:01.017Z,102534.94
2023-02-07T19:35:03.389Z,102525.50
2023-02-07T19:38:07.187Z,102530.53
2023-02-07T19:41:10.025Z,102526.16
2023-02-07T19:44:13.157Z,102536.34
2023-02-07T19:47:15.743Z,102542.22
2023-02-07T19:50:20.221Z,102535.69
2023-02-07T19:53:22.759Z,102537.50
2023-02-07T19:56:27.701Z,102546.19
2023-02-07T19:59:30.472Z,102543.09
2023-02-07T20:02:33.156Z,102543.25
2023-02-07T20:05:35.894Z,102531.87
2023-02-07T20:08:39.453Z,102532.31
2023-02-07T20:11:41.985Z,102524.94
2023-02-07T20:14:44.298Z,102532.31
2023-02-07T20:17:47.001Z,102542.25
2023-02-07T20:20:55.744Z,102555.50
2023-02-07T20:24:00.981Z,102553.34
2023-02-07T20:27:03.532Z,102563.94
2023-02-07T20:30:07.008Z,102566.00
2023-02-07T20:33:09.557Z,102568.91
2023-02-07T20:36:15.285Z,102569.91
2023-02-07T20:39:20.487Z,102561.94
2023-02-07T20:42:23.603Z,102569.63
2023-02-07T20:45:28.517Z,102567.19
2023-02-07T20:48:31.032Z,102570.09
2023-02-07T20:51:33.799Z,102568.41
2023-02-07T20:54:36.628Z,102579.03
2023-02-07T20:57:39.297Z,102579.88
2023-02-07T21:00:43.371Z,102584.00
2023-02-07T21:03:46.858Z,102577.56
2023-02-07T21:06:50.592Z,102589.72
2023-02-07T21:09:53.108Z,102586.66
2023-02-07T21:12:56.017Z,102587.09
2023-02-07T21:16:03.217Z,102582.87
2023-02-07T21:19:06.151Z,102583.16
2023-02-07T21:22:08.760Z,102584.19
2023-02-07T21:25:12.575Z,102594.19
2023-02-07T21:28:15.272Z,102599.91
2023-02-07T21:31:22.318Z,102589.13
2023-02-07T21:34:25.558Z,102595.84
2023-02-07T21:37:28.645Z,102594.91
2023-02-07T21:40:30.852Z,102602.31
2023-02-07T21:43:33.857Z,102614.13
2023-02-07T21:46:39.845Z,102605.56
2023-02-07T21:49:43.733Z,102597.19
2023-02-07T21:52:45.994Z,102604.03
2023-02-07T21:55:49.118Z,102600.66
2023-02-07T21:59:05.811Z,102603.06
2023-02-07T22:02:12.961Z,102601.16
2023-02-07T22:05:15.979Z,102597.03
2023-02-07T22:08:18.493Z,102608.41
2023-02-07T22:11:22.273Z,102597.53
2023-02-07T22:14:30.053Z,102600.16
2023-02-07T22:17:32.586Z,102605.09
2023-02-07T22:20:35.142Z,102587.72
2023-02-07T22:23:37.807Z,102598.06
2023-02-07T22:26:40.521Z,102601.56
2023-02-07T22:29:43.096Z,102596.44
2023-02-07T22:32:45.789Z,102598.81
2023-02-07T22:35:48.619Z,102595.06
2023-02-07T22:38:51.244Z,102592.19
2023-02-07T22:41:57.011Z,102595.16
2023-02-07T22:44:59.725Z,102599.84
2023-02-07T22:48:03.009Z,102606.06
2023-02-07T22:51:36.276Z,102603.19
2023-02-07T22:54:38.886Z,102600.06
2023-02-07T22:57:41.436Z,102597.88
2023-02-07T23:00:44.583Z,102599.66
2023-02-07T23:03:47.416Z,102597.44
2023-02-07T23:06:51.364Z,102594.56
2023-02-07T23:09:54.675Z,102596.47
2023-02-07T23:12:57.347Z,102592.03
2023-02-07T23:16:00.130Z,102594.75
2023-02-07T23:19:19.104Z,102588.75
2023-02-07T23:22:21.909Z,102597.88
2023-02-07T23:25:24.456Z,102593.59
2023-02-07T23:28:27.255Z,102594.03
2023-02-07T23:31:29.978Z,102596.41
2023-02-07T23:34:32.632Z,102586.50
2023-02-07T23:37:36.785Z,102598.81
2023-02-07T23:40:39.429Z,102589.87
2023-02-07T23:43:42.725Z,102586.50
2023-02-07T23:46:44.982Z,102590.22
2023-02-07T23:49:49.790Z,102585.00
2023-02-07T23:52:52.694Z,102587.50
2023-02-07T23:55:58.125Z,102585.53
2023-02-07T23:59:00.744Z,102597.72
